createdAt,value
2019-05-29T00:00:32.774Z,4.75
2019-05-29T00:05:37.351Z,5.72
2019-05-29T00:10:42.353Z,5.25
2019-05-29T00:15:46.741Z,4.75
2019-05-29T00:20:51.129Z,5.50
2019-05-29T00:25:55.435Z,5.83
2019-05-29T00:30:59.827Z,7.03
2019-05-29T00:36:04.219Z,7.35
2019-05-29T00:41:08.833Z,6.83
2019-05-29T00:46:13.432Z,6.55
2019-05-29T00:51:17.958Z,6.97
2019-05-29T00:56:22.363Z,6.78
2019-05-29T01:01:26.746Z,8.00
2019-05-29T01:06:31.135Z,6.90
2019-05-29T01:11:35.444Z,7.40
2019-05-29T01:16:39.763Z,7.05
2019-05-29T01:21:44.085Z,7.78
2019-05-29T01:26:48.450Z,7.78
2019-05-29T01:31:52.844Z,8.90
2019-05-29T01:36:57.296Z,9.93
2019-05-29T01:42:01.627Z,9.93
2019-05-29T01:47:06.016Z,11.28
2019-05-29T01:52:10.348Z,8.28
2019-05-29T01:57:15.741Z,9.00
2019-05-29T02:02:20.122Z,9.18
2019-05-29T02:07:24.442Z,8.50
2019-05-29T02:12:28.833Z,10.35
2019-05-29T02:17:33.337Z,7.97
2019-05-29T02:22:37.845Z,8.08
2019-05-29T02:27:42.226Z,7.17
2019-05-29T02:32:46.569Z,8.73
2019-05-29T02:37:50.967Z,6.90
2019-05-29T02:42:55.257Z,5.95
2019-05-29T02:47:59.646Z,6.62
2019-05-29T02:53:04.017Z,6.20
2019-05-29T02:58:08.322Z,6.72
2019-05-29T03:03:12.617Z,7.28
2019-05-29T03:08:17.010Z,28.85
2019-05-29T03:13:22.951Z,6.70
2019-05-29T03:18:28.100Z,8.73
2019-05-29T03:23:33.953Z,8.68
2019-05-29T03:28:38.584Z,8.65
2019-05-29T03:33:49.119Z,9.63
2019-05-29T03:38:49.040Z,9.00
2019-05-29T03:43:53.435Z,7.12
2019-05-29T03:48:57.750Z,9.70
2019-05-29T03:54:02.149Z,10.93
2019-05-29T03:59:06.548Z,8.53
2019-05-29T04:04:10.854Z,7.53
2019-05-29T04:09:15.255Z,10.13
2019-05-29T04:14:19.566Z,9.20
2019-05-29T04:19:24.799Z,8.40
2019-05-29T04:24:31.925Z,8.45
2019-05-29T04:29:36.376Z,9.65
2019-05-29T04:34:40.765Z,7.47
2019-05-29T04:39:45.089Z,11.65
2019-05-29T04:44:49.413Z,11.22
2019-05-29T04:49:53.719Z,12.68
2019-05-29T04:54:58.108Z,10.48
2019-05-29T05:00:02.537Z,10.18
2019-05-29T05:05:07.261Z,8.80
2019-05-29T05:10:12.251Z,10.13
2019-05-29T05:15:16.559Z,8.63
2019-05-29T05:20:20.952Z,8.48
2019-05-29T05:25:25.328Z,9.48
2019-05-29T05:30:30.390Z,9.55
2019-05-29T05:35:34.724Z,10.35
2019-05-29T05:40:41.342Z,11.15
2019-05-29T05:45:45.331Z,9.68
2019-05-29T05:50:49.651Z,9.03
2019-05-29T05:55:54.255Z,7.72
2019-05-29T06:00:58.842Z,5.83
2019-05-29T06:06:03.227Z,6.05
2019-05-29T06:11:07.522Z,5.78
2019-05-29T06:16:11.831Z,5.28
2019-05-29T06:21:16.251Z,5.83
2019-05-29T06:26:20.615Z,5.42
2019-05-29T06:31:27.137Z,4.40
2019-05-29T06:36:31.040Z,4.40
2019-05-29T06:41:35.724Z,4.15
2019-05-29T06:46:42.623Z,4.33
2019-05-29T06:51:47.507Z,3.65
2019-05-29T06:56:52.064Z,3.17
2019-05-29T07:01:56.375Z,3.20
2019-05-29T07:07:01.451Z,3.45
2019-05-29T07:12:05.884Z,3.40
2019-05-29T07:17:10.208Z,3.30
2019-05-29T07:22:14.523Z,3.52
2019-05-29T07:27:18.829Z,4.12
2019-05-29T07:32:23.210Z,4.53
2019-05-29T07:37:27.505Z,4.62
2019-05-29T07:42:31.823Z,4.50
2019-05-29T07:47:36.223Z,4.90
2019-05-29T07:52:40.935Z,4.25
2019-05-29T07:57:46.891Z,4.53
2019-05-29T08:02:51.398Z,4.75
2019-05-29T08:07:55.774Z,3.80
2019-05-29T08:13:00.157Z,4.45
2019-05-29T08:18:04.544Z,4.42
2019-05-29T08:23:08.926Z,5.10
2019-05-29T08:28:13.325Z,4.80
2019-05-29T08:33:17.723Z,3.40
2019-05-29T08:38:22.318Z,3.67
2019-05-29T08:43:26.715Z,3.10
2019-05-29T08:48:31.135Z,3.70
2019-05-29T08:53:35.528Z,3.92
2019-05-29T08:58:40.135Z,3.95
2019-05-29T09:03:46.640Z,3.47
2019-05-29T09:08:54.000Z,3.50
2019-05-29T09:13:57.354Z,3.47
2019-05-29T09:19:01.661Z,3.27
2019-05-29T09:24:06.111Z,3.50
2019-05-29T09:29:10.689Z,3.58
2019-05-29T09:34:15.519Z,3.35
2019-05-29T09:39:21.074Z,3.00
2019-05-29T09:44:37.903Z,2.77
2019-05-29T09:49:31.487Z,3.25
2019-05-29T09:54:36.002Z,3.70
2019-05-29T09:59:40.617Z,2.85
2019-05-29T10:04:44.908Z,3.08
2019-05-29T10:09:49.291Z,3.30
2019-05-29T10:14:53.676Z,3.50
2019-05-29T10:20:00.774Z,3.98
2019-05-29T10:25:08.550Z,3.70
2019-05-29T10:30:15.128Z,3.67
2019-05-29T10:35:19.636Z,3.27
2019-05-29T10:40:24.095Z,4.10
2019-05-29T10:45:28.546Z,3.90
2019-05-29T10:50:32.839Z,4.17
2019-05-29T10:55:37.229Z,3.83
2019-05-29T11:00:41.536Z,3.50
2019-05-29T11:05:45.855Z,3.12
2019-05-29T11:10:50.259Z,2.80
2019-05-29T11:15:54.873Z,3.30
2019-05-29T11:20:59.192Z,2.87
2019-05-29T11:26:03.502Z,2.95
2019-05-29T11:31:07.836Z,2.92
2019-05-29T11:36:13.574Z,2.83
2019-05-29T11:41:26.285Z,2.98
2019-05-29T11:46:24.770Z,2.90
2019-05-29T11:51:29.145Z,3.37
2019-05-29T11:56:33.534Z,3.30
2019-05-29T12:01:49.891Z,3.60
2019-05-29T12:06:44.023Z,3.40
2019-05-29T12:11:48.411Z,3.70
2019-05-29T12:16:54.193Z,3.58
2019-05-29T12:22:00.442Z,3.65
2019-05-29T12:27:04.865Z,3.97
2019-05-29T12:32:11.617Z,3.30
2019-05-29T12:37:15.598Z,3.23
2019-05-29T12:42:19.974Z,3.30
2019-05-29T12:47:24.367Z,3.10
2019-05-29T12:52:28.741Z,3.12
2019-05-29T12:57:33.159Z,2.90
2019-05-29T13:02:37.472Z,3.45
2019-05-29T13:07:41.866Z,2.95
2019-05-29T13:12:46.902Z,3.62
2019-05-29T13:17:55.573Z,3.80
2019-05-29T13:22:57.737Z,3.27
2019-05-29T13:28:03.109Z,3.10
2019-05-29T13:33:09.106Z,3.90
2019-05-29T13:38:13.794Z,3.62
2019-05-29T13:43:18.176Z,4.03
2019-05-29T13:48:23.478Z,3.87
2019-05-29T13:53:27.990Z,4.60
2019-05-29T13:58:32.369Z,4.00
2019-05-29T14:03:36.692Z,3.65
2019-05-29T14:08:40.982Z,5.08
2019-05-29T14:13:45.640Z,4.60
2019-05-29T14:18:50.079Z,3.87
2019-05-29T14:23:54.635Z,4.12
2019-05-29T14:28:59.019Z,4.60
2019-05-29T14:34:03.330Z,4.67
2019-05-29T14:39:09.761Z,4.72
2019-05-29T14:49:19.612Z,4.40
2019-05-29T14:54:38.226Z,5.58
2019-05-29T14:59:30.030Z,5.22
2019-05-29T15:04:34.624Z,4.80
2019-05-29T15:09:39.018Z,5.08
2019-05-29T15:14:43.423Z,6.45
2019-05-29T15:19:48.008Z,5.30
2019-05-29T15:25:04.107Z,5.95
2019-05-29T15:29:58.437Z,6.95
2019-05-29T15:35:03.062Z,5.33
2019-05-29T15:40:11.132Z,5.08
2019-05-29T15:45:16.221Z,4.70
2019-05-29T15:50:20.780Z,5.90
2019-05-29T15:55:33.946Z,6.95
2019-05-29T16:00:31.626Z,6.37
2019-05-29T16:05:35.923Z,6.50
2019-05-29T16:10:40.229Z,5.20
2019-05-29T16:15:44.617Z,5.50
2019-05-29T16:20:48.925Z,5.35
2019-05-29T16:25:53.929Z,6.03
2019-05-29T16:30:58.487Z,6.47
2019-05-29T16:36:02.895Z,6.58
2019-05-29T16:41:07.361Z,6.28
2019-05-29T16:46:16.918Z,7.20
2019-05-29T16:51:18.807Z,7.15
2019-05-29T16:56:23.456Z,7.30
2019-05-29T17:01:27.856Z,6.70
2019-05-29T17:06:32.235Z,6.90
2019-05-29T17:11:36.545Z,7.12
2019-05-29T17:16:41.139Z,8.25
2019-05-29T17:21:45.454Z,9.60
2019-05-29T17:26:49.857Z,8.65
2019-05-29T17:31:54.444Z,7.35
2019-05-29T17:36:59.076Z,6.40
2019-05-29T17:42:03.424Z,6.58
2019-05-29T17:47:07.730Z,6.60
2019-05-29T17:52:12.103Z,7.15
2019-05-29T17:57:18.190Z,7.80
2019-05-29T18:02:22.687Z,7.50
2019-05-29T18:07:27.078Z,7.47
2019-05-29T18:12:31.496Z,6.85
2019-05-29T18:17:35.881Z,6.22
2019-05-29T18:22:40.730Z,5.90
2019-05-29T18:27:45.109Z,6.42
2019-05-29T18:32:49.527Z,7.10
2019-05-29T18:37:53.823Z,7.05
2019-05-29T18:42:58.131Z,6.90
2019-05-29T18:48:02.525Z,5.50
2019-05-29T18:53:07.183Z,6.42
2019-05-29T18:58:11.573Z,6.00
2019-05-29T19:03:15.885Z,7.90
2019-05-29T19:08:21.531Z,10.63
2019-05-29T19:13:25.976Z,10.72
2019-05-29T19:18:30.285Z,10.90
2019-05-29T19:23:34.703Z,10.10
2019-05-29T19:28:39.305Z,10.75
2019-05-29T19:33:43.707Z,11.60
2019-05-29T19:38:48.129Z,10.78
2019-05-29T19:43:52.511Z,11.38
2019-05-29T19:48:56.825Z,10.43
2019-05-29T19:54:01.216Z,11.08
2019-05-29T19:59:05.696Z,10.85
2019-05-29T20:04:10.026Z,10.35
2019-05-29T20:09:14.377Z,11.18
2019-05-29T20:14:18.694Z,11.75
2019-05-29T20:19:23.008Z,11.12
2019-05-29T20:24:28.662Z,11.08
2019-05-29T20:29:34.327Z,10.40
2019-05-29T20:34:39.087Z,11.60
